sensor_id;sensor_type;location;lat;lon;timestamp;temperature;humidity
3100;DHT22;1560;52.746;13.474;2023-05-17T00:02:26;8.10;99.90
3100;DHT22;1560;52.746;13.474;2023-05-17T00:04:55;8.00;99.90
3100;DHT22;1560;52.746;13.474;2023-05-17T00:07:24;7.90;99.90
3100;DHT22;1560;52.746;13.474;2023-05-17T00:09:53;7.90;99.90
3100;DHT22;1560;52.746;13.474;2023-05-17T00:12:21;7.80;99.90
3100;DHT22;1560;52.746;13.474;2023-05-17T00:14:50;7.70;99.90
3100;DHT22;1560;52.746;13.474;2023-05-17T00:17:20;7.60;99.90
3100;DHT22;1560;52.746;13.474;2023-05-17T00:22:32;7.60;99.90
3100;DHT22;1560;52.746;13.474;2023-05-17T00:25:01;7.70;99.90
3100;DHT22;1560;52.746;13.474;2023-05-17T00:27:30;7.70;99.90
3100;DHT22;1560;52.746;13.474;2023-05-17T00:29:59;7.70;99.90
3100;DHT22;1560;52.746;13.474;2023-05-17T00:32:28;7.70;99.90
3100;DHT22;1560;52.746;13.474;2023-05-17T00:35:00;7.70;99.90
3100;DHT22;1560;52.746;13.474;2023-05-17T00:37:28;7.60;99.90
3100;DHT22;1560;52.746;13.474;2023-05-17T00:40:02;7.50;99.90
3100;DHT22;1560;52.746;13.474;2023-05-17T00:42:32;7.40;99.90
3100;DHT22;1560;52.746;13.474;2023-05-17T00:45:01;7.40;99.90
3100;DHT22;1560;52.746;13.474;2023-05-17T00:47:30;7.40;99.90
3100;DHT22;1560;52.746;13.474;2023-05-17T00:52:38;7.50;99.90
3100;DHT22;1560;52.746;13.474;2023-05-17T00:55:07;7.50;99.90
3100;DHT22;1560;52.746;13.474;2023-05-17T00:57:37;7.50;99.90
3100;DHT22;1560;52.746;13.474;2023-05-17T01:00:08;7.40;99.90
3100;DHT22;1560;52.746;13.474;2023-05-17T01:02:37;7.40;99.90
3100;DHT22;1560;52.746;13.474;2023-05-17T01:05:07;7.40;99.90
3100;DHT22;1560;52.746;13.474;2023-05-17T01:10:14;7.40;99.90
3100;DHT22;1560;52.746;13.474;2023-05-17T01:15:31;7.40;99.90
3100;DHT22;1560;52.746;13.474;2023-05-17T01:20:44;7.30;99.90
3100;DHT22;1560;52.746;13.474;2023-05-17T01:26:09;7.00;99.90
3100;DHT22;1560;52.746;13.474;2023-05-17T01:28:39;6.90;99.90
3100;DHT22;1560;52.746;13.474;2023-05-17T01:31:13;6.90;99.90
3100;DHT22;1560;52.746;13.474;2023-05-17T01:33:42;6.90;99.90
3100;DHT22;1560;52.746;13.474;2023-05-17T01:36:11;7.00;99.90
3100;DHT22;1560;52.746;13.474;2023-05-17T01:38:40;6.90;99.90
3100;DHT22;1560;52.746;13.474;2023-05-17T01:43:53;6.90;99.90
3100;DHT22;1560;52.746;13.474;2023-05-17T01:46:25;6.80;99.90
3100;DHT22;1560;52.746;13.474;2023-05-17T01:48:59;6.80;99.90
3100;DHT22;1560;52.746;13.474;2023-05-17T01:51:31;6.80;99.90
3100;DHT22;1560;52.746;13.474;2023-05-17T01:54:04;6.80;99.90
3100;DHT22;1560;52.746;13.474;2023-05-17T01:56:38;6.90;99.90
3100;DHT22;1560;52.746;13.474;2023-05-17T01:59:09;6.80;99.90
3100;DHT22;1560;52.746;13.474;2023-05-17T02:04:19;6.70;99.90
3100;DHT22;1560;52.746;13.474;2023-05-17T02:06:48;6.60;99.90
3100;DHT22;1560;52.746;13.474;2023-05-17T02:09:17;6.60;99.90
3100;DHT22;1560;52.746;13.474;2023-05-17T02:11:46;6.60;99.90
3100;DHT22;1560;52.746;13.474;2023-05-17T02:14:15;6.60;99.90
3100;DHT22;1560;52.746;13.474;2023-05-17T02:16:44;6.60;99.90
3100;DHT22;1560;52.746;13.474;2023-05-17T02:19:13;6.60;99.90
3100;DHT22;1560;52.746;13.474;2023-05-17T02:21:42;6.60;99.90
3100;DHT22;1560;52.746;13.474;2023-05-17T02:24:11;6.60;99.90
3100;DHT22;1560;52.746;13.474;2023-05-17T02:26:40;6.60;99.90
3100;DHT22;1560;52.746;13.474;2023-05-17T02:31:51;6.60;99.90
3100;DHT22;1560;52.746;13.474;2023-05-17T02:34:20;6.70;99.90
3100;DHT22;1560;52.746;13.474;2023-05-17T02:39:29;6.80;99.90
3100;DHT22;1560;52.746;13.474;2023-05-17T02:42:00;6.80;99.90
3100;DHT22;1560;52.746;13.474;2023-05-17T02:44:29;6.90;99.90
3100;DHT22;1560;52.746;13.474;2023-05-17T02:46:58;6.90;99.90
3100;DHT22;1560;52.746;13.474;2023-05-17T02:52:07;6.90;99.90
3100;DHT22;1560;52.746;13.474;2023-05-17T02:54:38;6.90;99.90
3100;DHT22;1560;52.746;13.474;2023-05-17T02:57:08;7.00;99.90
3100;DHT22;1560;52.746;13.474;2023-05-17T02:59:37;7.00;99.90
3100;DHT22;1560;52.746;13.474;2023-05-17T03:02:06;7.00;99.90
3100;DHT22;1560;52.746;13.474;2023-05-17T03:04:38;7.00;99.90
3100;DHT22;1560;52.746;13.474;2023-05-17T03:07:08;7.10;99.90
3100;DHT22;1560;52.746;13.474;2023-05-17T03:09:37;7.10;99.90
3100;DHT22;1560;52.746;13.474;2023-05-17T03:12:08;7.00;99.90
3100;DHT22;1560;52.746;13.474;2023-05-17T03:14:38;7.00;99.90
3100;DHT22;1560;52.746;13.474;2023-05-17T03:17:07;7.10;99.90
3100;DHT22;1560;52.746;13.474;2023-05-17T03:19:39;7.10;99.90
3100;DHT22;1560;52.746;13.474;2023-05-17T03:22:08;7.10;99.90
3100;DHT22;1560;52.746;13.474;2023-05-17T03:24:41;7.20;99.90
3100;DHT22;1560;52.746;13.474;2023-05-17T03:27:13;7.10;99.90
3100;DHT22;1560;52.746;13.474;2023-05-17T03:32:27;7.00;99.90
3100;DHT22;1560;52.746;13.474;2023-05-17T03:34:59;7.00;99.90
3100;DHT22;1560;52.746;13.474;2023-05-17T03:37:28;7.00;99.90
3100;DHT22;1560;52.746;13.474;2023-05-17T03:39:57;7.00;99.90
3100;DHT22;1560;52.746;13.474;2023-05-17T03:42:28;7.00;99.90
3100;DHT22;1560;52.746;13.474;2023-05-17T03:47:38;7.00;99.90
3100;DHT22;1560;52.746;13.474;2023-05-17T03:50:09;7.00;99.90
3100;DHT22;1560;52.746;13.474;2023-05-17T03:52:40;7.00;99.90
3100;DHT22;1560;52.746;13.474;2023-05-17T03:55:09;7.10;99.90
3100;DHT22;1560;52.746;13.474;2023-05-17T03:57:38;7.10;99.90
3100;DHT22;1560;52.746;13.474;2023-05-17T04:00:10;7.10;99.90
3100;DHT22;1560;52.746;13.474;2023-05-17T04:02:43;7.10;99.90
3100;DHT22;1560;52.746;13.474;2023-05-17T04:05:12;7.20;99.90
3100;DHT22;1560;52.746;13.474;2023-05-17T04:07:41;7.20;99.90
3100;DHT22;1560;52.746;13.474;2023-05-17T04:10:14;7.30;99.90
3100;DHT22;1560;52.746;13.474;2023-05-17T04:12:43;7.30;99.90
3100;DHT22;1560;52.746;13.474;2023-05-17T04:15:12;7.40;99.90
3100;DHT22;1560;52.746;13.474;2023-05-17T04:17:41;7.40;99.90
3100;DHT22;1560;52.746;13.474;2023-05-17T04:20:12;7.40;99.90
3100;DHT22;1560;52.746;13.474;2023-05-17T04:22:41;7.50;99.90
3100;DHT22;1560;52.746;13.474;2023-05-17T04:27:53;7.60;99.90
3100;DHT22;1560;52.746;13.474;2023-05-17T04:30:23;7.60;99.90
3100;DHT22;1560;52.746;13.474;2023-05-17T04:32:52;7.60;99.90
3100;DHT22;1560;52.746;13.474;2023-05-17T04:35:24;7.70;99.90
3100;DHT22;1560;52.746;13.474;2023-05-17T04:40:32;7.70;99.90
3100;DHT22;1560;52.746;13.474;2023-05-17T04:45:40;7.60;99.90
3100;DHT22;1560;52.746;13.474;2023-05-17T04:50:46;7.60;99.90
3100;DHT22;1560;52.746;13.474;2023-05-17T04:53:16;7.60;99.90
3100;DHT22;1560;52.746;13.474;2023-05-17T04:55:46;7.60;99.90
3100;DHT22;1560;52.746;13.474;2023-05-17T04:58:17;7.60;99.90
3100;DHT22;1560;52.746;13.474;2023-05-17T05:00:46;7.60;99.90
3100;DHT22;1560;52.746;13.474;2023-05-17T05:03:16;7.60;99.90
3100;DHT22;1560;52.746;13.474;2023-05-17T05:05:46;7.60;99.90
3100;DHT22;1560;52.746;13.474;2023-05-17T05:10:53;7.70;99.90
3100;DHT22;1560;52.746;13.474;2023-05-17T05:13:22;7.70;99.90
3100;DHT22;1560;52.746;13.474;2023-05-17T05:15:51;7.70;99.90
3100;DHT22;1560;52.746;13.474;2023-05-17T05:18:20;7.70;99.90
3100;DHT22;1560;52.746;13.474;2023-05-17T05:20:50;7.80;99.90
3100;DHT22;1560;52.746;13.474;2023-05-17T05:23:22;7.80;99.90
3100;DHT22;1560;52.746;13.474;2023-05-17T05:28:32;7.90;99.90
3100;DHT22;1560;52.746;13.474;2023-05-17T05:33:44;7.90;99.90
3100;DHT22;1560;52.746;13.474;2023-05-17T05:36:13;7.90;99.90
3100;DHT22;1560;52.746;13.474;2023-05-17T05:38:44;8.00;99.90
3100;DHT22;1560;52.746;13.474;2023-05-17T05:43:50;8.00;99.90
3100;DHT22;1560;52.746;13.474;2023-05-17T05:46:19;8.10;99.90
3100;DHT22;1560;52.746;13.474;2023-05-17T05:48:49;8.20;99.90
3100;DHT22;1560;52.746;13.474;2023-05-17T05:51:20;8.20;99.90
3100;DHT22;1560;52.746;13.474;2023-05-17T05:53:49;8.30;99.90
3100;DHT22;1560;52.746;13.474;2023-05-17T05:56:18;8.30;99.90
3100;DHT22;1560;52.746;13.474;2023-05-17T05:58:48;8.40;99.90
3100;DHT22;1560;52.746;13.474;2023-05-17T06:01:19;8.40;99.90
3100;DHT22;1560;52.746;13.474;2023-05-17T06:03:49;8.40;99.90
3100;DHT22;1560;52.746;13.474;2023-05-17T06:08:55;8.50;99.90
3100;DHT22;1560;52.746;13.474;2023-05-17T06:11:25;8.50;99.90
3100;DHT22;1560;52.746;13.474;2023-05-17T06:13:54;8.60;99.90
3100;DHT22;1560;52.746;13.474;2023-05-17T06:16:23;8.60;99.90
3100;DHT22;1560;52.746;13.474;2023-05-17T06:18:52;8.70;99.90
3100;DHT22;1560;52.746;13.474;2023-05-17T06:21:21;8.70;99.90
3100;DHT22;1560;52.746;13.474;2023-05-17T06:23:51;8.80;99.90
3100;DHT22;1560;52.746;13.474;2023-05-17T06:26:22;8.80;99.90
3100;DHT22;1560;52.746;13.474;2023-05-17T06:28:51;8.90;99.90
3100;DHT22;1560;52.746;13.474;2023-05-17T06:31:23;8.90;99.90
3100;DHT22;1560;52.746;13.474;2023-05-17T06:33:55;9.00;99.90
3100;DHT22;1560;52.746;13.474;2023-05-17T06:36:24;9.20;93.70
3100;DHT22;1560;52.746;13.474;2023-05-17T06:38:53;9.30;27.30
3100;DHT22;1560;52.746;13.474;2023-05-17T06:41:23;9.30;1.00
3100;DHT22;1560;52.746;13.474;2023-05-17T06:46:37;9.20;1.00
3100;DHT22;1560;52.746;13.474;2023-05-17T06:49:07;9.10;1.00
3100;DHT22;1560;52.746;13.474;2023-05-17T06:51:36;9.00;1.00
3100;DHT22;1560;52.746;13.474;2023-05-17T06:56:44;9.20;1.00
3100;DHT22;1560;52.746;13.474;2023-05-17T06:59:13;9.40;1.00
3100;DHT22;1560;52.746;13.474;2023-05-17T07:01:43;9.60;1.00
3100;DHT22;1560;52.746;13.474;2023-05-17T07:06:52;9.80;1.00
3100;DHT22;1560;52.746;13.474;2023-05-17T07:12:01;9.90;1.00
3100;DHT22;1560;52.746;13.474;2023-05-17T07:14:33;9.90;1.00
3100;DHT22;1560;52.746;13.474;2023-05-17T07:17:03;9.90;1.00
3100;DHT22;1560;52.746;13.474;2023-05-17T07:19:32;9.80;1.00
3100;DHT22;1560;52.746;13.474;2023-05-17T07:22:01;9.90;1.00
3100;DHT22;1560;52.746;13.474;2023-05-17T07:24:30;10.00;1.00
3100;DHT22;1560;52.746;13.474;2023-05-17T07:26:59;10.20;1.00
3100;DHT22;1560;52.746;13.474;2023-05-17T07:29:29;10.10;1.00
3100;DHT22;1560;52.746;13.474;2023-05-17T07:34:38;10.20;1.00
3100;DHT22;1560;52.746;13.474;2023-05-17T07:37:09;10.30;1.00
3100;DHT22;1560;52.746;13.474;2023-05-17T07:42:18;10.40;99.90
3100;DHT22;1560;52.746;13.474;2023-05-17T07:44:47;10.60;1.00
3100;DHT22;1560;52.746;13.474;2023-05-17T07:47:23;10.80;1.00
3100;DHT22;1560;52.746;13.474;2023-05-17T07:49:55;11.00;1.00
3100;DHT22;1560;52.746;13.474;2023-05-17T07:52:26;10.90;1.00
3100;DHT22;1560;52.746;13.474;2023-05-17T07:54:56;10.90;1.00
3100;DHT22;1560;52.746;13.474;2023-05-17T07:57:30;10.90;99.90
3100;DHT22;1560;52.746;13.474;2023-05-17T08:00:00;10.90;1.00
3100;DHT22;1560;52.746;13.474;2023-05-17T08:02:29;11.10;99.90
3100;DHT22;1560;52.746;13.474;2023-05-17T08:07:40;11.40;99.90
3100;DHT22;1560;52.746;13.474;2023-05-17T08:12:53;11.50;99.90
3100;DHT22;1560;52.746;13.474;2023-05-17T08:15:24;11.50;99.90
3100;DHT22;1560;52.746;13.474;2023-05-17T08:18:01;11.60;99.90
3100;DHT22;1560;52.746;13.474;2023-05-17T08:23:12;11.70;99.90
3100;DHT22;1560;52.746;13.474;2023-05-17T08:25:40;12.00;99.90
3100;DHT22;1560;52.746;13.474;2023-05-17T08:30:54;12.10;99.90
3100;DHT22;1560;52.746;13.474;2023-05-17T08:33:25;12.20;99.90
3100;DHT22;1560;52.746;13.474;2023-05-17T08:35:55;12.30;99.90
3100;DHT22;1560;52.746;13.474;2023-05-17T08:38:24;12.40;99.90
3100;DHT22;1560;52.746;13.474;2023-05-17T08:40:53;12.50;99.90
3100;DHT22;1560;52.746;13.474;2023-05-17T08:43:24;12.40;99.90
3100;DHT22;1560;52.746;13.474;2023-05-17T08:45:53;12.40;99.90
3100;DHT22;1560;52.746;13.474;2023-05-17T08:51:04;12.90;99.90
3100;DHT22;1560;52.746;13.474;2023-05-17T08:53:34;13.00;99.90
3100;DHT22;1560;52.746;13.474;2023-05-17T08:56:04;13.00;99.90
3100;DHT22;1560;52.746;13.474;2023-05-17T08:58:36;13.10;99.90
3100;DHT22;1560;52.746;13.474;2023-05-17T09:01:07;13.20;99.90
3100;DHT22;1560;52.746;13.474;2023-05-17T09:06:19;13.60;99.90
3100;DHT22;1560;52.746;13.474;2023-05-17T09:08:49;13.80;99.90
3100;DHT22;1560;52.746;13.474;2023-05-17T09:11:26;13.70;99.90
3100;DHT22;1560;52.746;13.474;2023-05-17T09:16:48;13.50;99.90
3100;DHT22;1560;52.746;13.474;2023-05-17T09:19:17;13.90;99.90
3100;DHT22;1560;52.746;13.474;2023-05-17T09:21:49;14.10;99.90
3100;DHT22;1560;52.746;13.474;2023-05-17T09:24:23;14.20;99.90
3100;DHT22;1560;52.746;13.474;2023-05-17T09:26:55;14.40;99.90
3100;DHT22;1560;52.746;13.474;2023-05-17T09:32:16;14.60;99.90
3100;DHT22;1560;52.746;13.474;2023-05-17T09:34:47;14.60;99.90
3100;DHT22;1560;52.746;13.474;2023-05-17T09:39:55;14.90;99.90
3100;DHT22;1560;52.746;13.474;2023-05-17T09:42:25;15.00;99.90
3100;DHT22;1560;52.746;13.474;2023-05-17T09:44:56;15.00;99.90
3100;DHT22;1560;52.746;13.474;2023-05-17T09:50:05;15.10;99.90
3100;DHT22;1560;52.746;13.474;2023-05-17T09:52:35;15.10;99.90
3100;DHT22;1560;52.746;13.474;2023-05-17T09:57:51;15.40;99.90
3100;DHT22;1560;52.746;13.474;2023-05-17T10:00:21;15.40;99.90
3100;DHT22;1560;52.746;13.474;2023-05-17T10:02:50;15.60;99.90
3100;DHT22;1560;52.746;13.474;2023-05-17T10:05:20;15.50;99.90
3100;DHT22;1560;52.746;13.474;2023-05-17T10:07:54;15.50;99.90
3100;DHT22;1560;52.746;13.474;2023-05-17T10:10:26;15.60;99.90
3100;DHT22;1560;52.746;13.474;2023-05-17T10:13:01;15.70;99.90
3100;DHT22;1560;52.746;13.474;2023-05-17T10:15:33;15.70;99.90
3100;DHT22;1560;52.746;13.474;2023-05-17T10:18:10;16.00;99.90
3100;DHT22;1560;52.746;13.474;2023-05-17T10:20:36;16.10;99.90
3100;DHT22;1560;52.746;13.474;2023-05-17T10:23:10;16.20;99.90
3100;DHT22;1560;52.746;13.474;2023-05-17T10:25:39;16.20;99.90
3100;DHT22;1560;52.746;13.474;2023-05-17T10:30:53;16.20;99.90
3100;DHT22;1560;52.746;13.474;2023-05-17T10:33:29;16.20;99.90
3100;DHT22;1560;52.746;13.474;2023-05-17T10:36:06;16.10;99.90
3100;DHT22;1560;52.746;13.474;2023-05-17T10:38:45;16.00;99.90
3100;DHT22;1560;52.746;13.474;2023-05-17T10:41:15;16.00;99.90
3100;DHT22;1560;52.746;13.474;2023-05-17T10:43:46;16.30;99.90
3100;DHT22;1560;52.746;13.474;2023-05-17T10:46:17;16.70;99.90
3100;DHT22;1560;52.746;13.474;2023-05-17T10:48:51;16.70;99.90
3100;DHT22;1560;52.746;13.474;2023-05-17T10:54:14;16.70;99.90
3100;DHT22;1560;52.746;13.474;2023-05-17T10:56:49;17.00;99.90
3100;DHT22;1560;52.746;13.474;2023-05-17T10:59:24;17.10;99.90
3100;DHT22;1560;52.746;13.474;2023-05-17T11:02:02;17.30;99.90
3100;DHT22;1560;52.746;13.474;2023-05-17T11:10:10;17.40;99.90
3100;DHT22;1560;52.746;13.474;2023-05-17T11:12:41;17.60;99.90
3100;DHT22;1560;52.746;13.474;2023-05-17T11:15:23;17.70;99.90
3100;DHT22;1560;52.746;13.474;2023-05-17T11:17:52;17.90;99.90
3100;DHT22;1560;52.746;13.474;2023-05-17T11:20:32;17.70;99.90
3100;DHT22;1560;52.746;13.474;2023-05-17T11:23:06;17.70;99.90
3100;DHT22;1560;52.746;13.474;2023-05-17T11:25:38;17.70;99.90
3100;DHT22;1560;52.746;13.474;2023-05-17T11:28:18;17.40;99.90
3100;DHT22;1560;52.746;13.474;2023-05-17T11:31:06;17.20;99.90
3100;DHT22;1560;52.746;13.474;2023-05-17T11:36:24;17.10;99.90
3100;DHT22;1560;52.746;13.474;2023-05-17T11:39:11;16.40;99.90
3100;DHT22;1560;52.746;13.474;2023-05-17T11:41:48;16.40;99.90
3100;DHT22;1560;52.746;13.474;2023-05-17T11:44:23;17.20;99.90
3100;DHT22;1560;52.746;13.474;2023-05-17T11:47:01;17.70;99.90
3100;DHT22;1560;52.746;13.474;2023-05-17T11:49:32;17.80;99.90
3100;DHT22;1560;52.746;13.474;2023-05-17T11:52:05;17.60;99.90
3100;DHT22;1560;52.746;13.474;2023-05-17T11:54:41;17.80;99.90
3100;DHT22;1560;52.746;13.474;2023-05-17T11:57:29;17.80;99.90
3100;DHT22;1560;52.746;13.474;2023-05-17T12:02:41;18.00;99.90
3100;DHT22;1560;52.746;13.474;2023-05-17T12:29:09;18.10;99.90
3100;DHT22;1560;52.746;13.474;2023-05-17T12:31:42;18.10;99.90
3100;DHT22;1560;52.746;13.474;2023-05-17T12:34:11;18.20;99.90
3100;DHT22;1560;52.746;13.474;2023-05-17T12:36:42;18.20;99.90
3100;DHT22;1560;52.746;13.474;2023-05-17T12:39:15;18.30;99.90
3100;DHT22;1560;52.746;13.474;2023-05-17T12:44:28;17.70;99.90
3100;DHT22;1560;52.746;13.474;2023-05-17T12:47:03;17.10;99.90
3100;DHT22;1560;52.746;13.474;2023-05-17T12:49:37;16.80;99.90
3100;DHT22;1560;52.746;13.474;2023-05-17T12:52:10;16.90;99.90
3100;DHT22;1560;52.746;13.474;2023-05-17T12:54:39;17.10;99.90
3100;DHT22;1560;52.746;13.474;2023-05-17T12:57:11;17.30;99.90
3100;DHT22;1560;52.746;13.474;2023-05-17T12:59:51;17.10;99.90
3100;DHT22;1560;52.746;13.474;2023-05-17T13:05:14;17.10;99.90
3100;DHT22;1560;52.746;13.474;2023-05-17T13:07:46;16.90;99.90
3100;DHT22;1560;52.746;13.474;2023-05-17T13:10:23;16.50;99.90
3100;DHT22;1560;52.746;13.474;2023-05-17T13:12:58;16.20;99.90
3100;DHT22;1560;52.746;13.474;2023-05-17T13:15:32;16.40;99.90
3100;DHT22;1560;52.746;13.474;2023-05-17T13:18:14;16.10;99.90
3100;DHT22;1560;52.746;13.474;2023-05-17T13:20:48;16.10;99.90
3100;DHT22;1560;52.746;13.474;2023-05-17T13:23:19;16.40;99.90
3100;DHT22;1560;52.746;13.474;2023-05-17T13:25:49;16.40;99.90
3100;DHT22;1560;52.746;13.474;2023-05-17T13:28:23;16.30;99.90
3100;DHT22;1560;52.746;13.474;2023-05-17T13:30:59;16.40;99.90
3100;DHT22;1560;52.746;13.474;2023-05-17T13:33:32;16.10;99.90
3100;DHT22;1560;52.746;13.474;2023-05-17T13:36:04;15.90;99.90
3100;DHT22;1560;52.746;13.474;2023-05-17T13:41:14;15.80;99.90
3100;DHT22;1560;52.746;13.474;2023-05-17T13:43:43;15.70;99.90
3100;DHT22;1560;52.746;13.474;2023-05-17T13:46:12;15.80;99.90
3100;DHT22;1560;52.746;13.474;2023-05-17T13:51:30;15.60;99.90
3100;DHT22;1560;52.746;13.474;2023-05-17T13:54:10;15.60;99.90
3100;DHT22;1560;52.746;13.474;2023-05-17T13:56:42;15.80;99.90
3100;DHT22;1560;52.746;13.474;2023-05-17T14:02:22;15.20;99.90
3100;DHT22;1560;52.746;13.474;2023-05-17T14:04:51;15.00;99.90
3100;DHT22;1560;52.746;13.474;2023-05-17T14:10:03;15.30;99.90
3100;DHT22;1560;52.746;13.474;2023-05-17T14:12:34;15.20;99.90
3100;DHT22;1560;52.746;13.474;2023-05-17T14:15:05;15.00;99.90
3100;DHT22;1560;52.746;13.474;2023-05-17T14:17:34;15.00;99.90
3100;DHT22;1560;52.746;13.474;2023-05-17T14:20:07;14.90;99.90
3100;DHT22;1560;52.746;13.474;2023-05-17T14:22:36;14.90;99.90
3100;DHT22;1560;52.746;13.474;2023-05-17T14:25:07;14.90;99.90
3100;DHT22;1560;52.746;13.474;2023-05-17T14:27:39;14.70;99.90
3100;DHT22;1560;52.746;13.474;2023-05-17T14:30:11;14.80;99.90
3100;DHT22;1560;52.746;13.474;2023-05-17T14:32:42;14.60;99.90
3100;DHT22;1560;52.746;13.474;2023-05-17T14:35:11;14.30;99.90
3100;DHT22;1560;52.746;13.474;2023-05-17T14:37:39;14.30;99.90
3100;DHT22;1560;52.746;13.474;2023-05-17T14:40:12;14.30;99.90
3100;DHT22;1560;52.746;13.474;2023-05-17T14:42:41;14.40;99.90
3100;DHT22;1560;52.746;13.474;2023-05-17T14:45:10;14.50;99.90
3100;DHT22;1560;52.746;13.474;2023-05-17T14:50:16;14.60;99.90
3100;DHT22;1560;52.746;13.474;2023-05-17T14:52:48;14.60;99.90
3100;DHT22;1560;52.746;13.474;2023-05-17T14:57:56;14.50;99.90
3100;DHT22;1560;52.746;13.474;2023-05-17T15:00:30;14.60;99.90
3100;DHT22;1560;52.746;13.474;2023-05-17T15:03:03;14.70;99.90
3100;DHT22;1560;52.746;13.474;2023-05-17T15:05:32;14.70;99.90
3100;DHT22;1560;52.746;13.474;2023-05-17T15:08:02;14.60;99.90
3100;DHT22;1560;52.746;13.474;2023-05-17T15:10:32;14.40;99.90
3100;DHT22;1560;52.746;13.474;2023-05-17T15:13:06;14.40;99.90
3100;DHT22;1560;52.746;13.474;2023-05-17T15:18:14;14.40;99.90
3100;DHT22;1560;52.746;13.474;2023-05-17T15:20:43;14.50;99.90
3100;DHT22;1560;52.746;13.474;2023-05-17T15:23:15;14.60;99.90
3100;DHT22;1560;52.746;13.474;2023-05-17T15:25:44;14.70;99.90
3100;DHT22;1560;52.746;13.474;2023-05-17T15:28:16;14.70;99.90
3100;DHT22;1560;52.746;13.474;2023-05-17T15:30:47;14.70;99.90
3100;DHT22;1560;52.746;13.474;2023-05-17T15:33:17;14.60;99.90
3100;DHT22;1560;52.746;13.474;2023-05-17T15:35:46;14.50;99.90
3100;DHT22;1560;52.746;13.474;2023-05-17T15:38:15;14.50;99.90
3100;DHT22;1560;52.746;13.474;2023-05-17T15:40:44;14.50;99.90
3100;DHT22;1560;52.746;13.474;2023-05-17T15:43:13;14.50;99.90
3100;DHT22;1560;52.746;13.474;2023-05-17T15:45:44;14.40;99.90
3100;DHT22;1560;52.746;13.474;2023-05-17T15:48:13;14.50;99.90
3100;DHT22;1560;52.746;13.474;2023-05-17T15:50:42;14.50;99.90
3100;DHT22;1560;52.746;13.474;2023-05-17T15:53:10;14.60;99.90
3100;DHT22;1560;52.746;13.474;2023-05-17T15:55:39;14.60;99.90
3100;DHT22;1560;52.746;13.474;2023-05-17T15:58:11;14.50;99.90
3100;DHT22;1560;52.746;13.474;2023-05-17T16:00:40;14.50;99.90
3100;DHT22;1560;52.746;13.474;2023-05-17T16:03:09;14.60;99.90
3100;DHT22;1560;52.746;13.474;2023-05-17T16:05:41;14.60;99.90
3100;DHT22;1560;52.746;13.474;2023-05-17T16:10:49;14.60;99.90
3100;DHT22;1560;52.746;13.474;2023-05-17T16:13:19;14.60;99.90
3100;DHT22;1560;52.746;13.474;2023-05-17T17:03:32;14.20;99.90
3100;DHT22;1560;52.746;13.474;2023-05-17T18:14:34;13.40;99.90
3100;DHT22;1560;52.746;13.474;2023-05-17T18:17:03;13.30;99.90
3100;DHT22;1560;52.746;13.474;2023-05-17T18:31:31;12.90;99.90
3100;DHT22;1560;52.746;13.474;2023-05-17T19:15:41;12.10;99.90
3100;DHT22;1560;52.746;13.474;2023-05-17T19:18:10;12.00;99.90
3100;DHT22;1560;52.746;13.474;2023-05-17T19:20:39;12.00;99.90
3100;DHT22;1560;52.746;13.474;2023-05-17T19:23:08;12.10;99.90
3100;DHT22;1560;52.746;13.474;2023-05-17T19:28:27;12.10;99.90
3100;DHT22;1560;52.746;13.474;2023-05-17T19:34:09;12.10;99.90
3100;DHT22;1560;52.746;13.474;2023-05-17T19:36:38;12.10;99.90
3100;DHT22;1560;52.746;13.474;2023-05-17T19:39:06;12.10;99.90
3100;DHT22;1560;52.746;13.474;2023-05-17T19:41:36;12.10;99.90
3100;DHT22;1560;52.746;13.474;2023-05-17T19:44:07;12.10;99.90
3100;DHT22;1560;52.746;13.474;2023-05-17T19:46:35;12.10;99.90
3100;DHT22;1560;52.746;13.474;2023-05-17T19:51:43;11.90;99.90
3100;DHT22;1560;52.746;13.474;2023-05-17T19:54:12;11.90;99.90
3100;DHT22;1560;52.746;13.474;2023-05-17T19:56:41;11.90;99.90
3100;DHT22;1560;52.746;13.474;2023-05-17T19:59:09;11.80;99.90
3100;DHT22;1560;52.746;13.474;2023-05-17T20:01:41;11.70;99.90
3100;DHT22;1560;52.746;13.474;2023-05-17T20:04:12;11.60;99.90
3100;DHT22;1560;52.746;13.474;2023-05-17T20:06:41;11.50;99.90
3100;DHT22;1560;52.746;13.474;2023-05-17T20:09:09;11.50;99.90
3100;DHT22;1560;52.746;13.474;2023-05-17T20:14:17;11.40;99.90
3100;DHT22;1560;52.746;13.474;2023-05-17T20:19:28;11.00;99.90
3100;DHT22;1560;52.746;13.474;2023-05-17T20:21:57;10.70;99.90
3100;DHT22;1560;52.746;13.474;2023-05-17T20:24:25;10.60;99.90
3100;DHT22;1560;52.746;13.474;2023-05-17T20:26:56;10.70;99.90
3100;DHT22;1560;52.746;13.474;2023-05-17T20:29:25;10.70;99.90
3100;DHT22;1560;52.746;13.474;2023-05-17T20:31:53;10.60;99.90
3100;DHT22;1560;52.746;13.474;2023-05-17T20:34:25;10.50;99.90
3100;DHT22;1560;52.746;13.474;2023-05-17T20:36:55;10.60;99.90
3100;DHT22;1560;52.746;13.474;2023-05-17T20:39:25;10.60;99.90
3100;DHT22;1560;52.746;13.474;2023-05-17T20:41:57;10.70;99.90
3100;DHT22;1560;52.746;13.474;2023-05-17T20:44:27;10.60;99.90
3100;DHT22;1560;52.746;13.474;2023-05-17T20:46:56;10.60;99.90
3100;DHT22;1560;52.746;13.474;2023-05-17T20:49:25;10.50;99.90
3100;DHT22;1560;52.746;13.474;2023-05-17T20:54:33;10.40;99.90
3100;DHT22;1560;52.746;13.474;2023-05-17T20:57:05;10.30;99.90
3100;DHT22;1560;52.746;13.474;2023-05-17T20:59:34;10.30;99.90
3100;DHT22;1560;52.746;13.474;2023-05-17T21:02:05;10.30;99.90
3100;DHT22;1560;52.746;13.474;2023-05-17T21:07:17;10.20;99.90
3100;DHT22;1560;52.746;13.474;2023-05-17T21:09:48;10.20;99.90
3100;DHT22;1560;52.746;13.474;2023-05-17T21:12:16;10.20;99.90
3100;DHT22;1560;52.746;13.474;2023-05-17T21:14:45;10.10;99.90
3100;DHT22;1560;52.746;13.474;2023-05-17T21:17:14;10.10;99.90
3100;DHT22;1560;52.746;13.474;2023-05-17T21:19:43;10.10;99.90
3100;DHT22;1560;52.746;13.474;2023-05-17T21:22:15;9.90;99.90
3100;DHT22;1560;52.746;13.474;2023-05-17T21:24:46;9.90;99.90
3100;DHT22;1560;52.746;13.474;2023-05-17T21:27:16;9.90;99.90
3100;DHT22;1560;52.746;13.474;2023-05-17T21:29:48;9.90;99.90
3100;DHT22;1560;52.746;13.474;2023-05-17T21:32:17;9.90;99.90
3100;DHT22;1560;52.746;13.474;2023-05-17T21:34:45;9.80;99.90
3100;DHT22;1560;52.746;13.474;2023-05-17T21:37:14;9.80;99.90
3100;DHT22;1560;52.746;13.474;2023-05-17T21:39:43;9.70;99.90
3100;DHT22;1560;52.746;13.474;2023-05-17T21:42:13;9.70;99.90
3100;DHT22;1560;52.746;13.474;2023-05-17T21:44:43;9.50;99.90
3100;DHT22;1560;52.746;13.474;2023-05-17T21:49:49;9.30;99.90
3100;DHT22;1560;52.746;13.474;2023-05-17T21:52:18;9.40;99.90
3100;DHT22;1560;52.746;13.474;2023-05-17T21:54:47;9.40;99.90
3100;DHT22;1560;52.746;13.474;2023-05-17T21:57:16;9.20;99.90
3100;DHT22;1560;52.746;13.474;2023-05-17T21:59:47;9.20;99.90
3100;DHT22;1560;52.746;13.474;2023-05-17T22:02:16;9.10;99.90
3100;DHT22;1560;52.746;13.474;2023-05-17T22:07:28;9.10;99.90
3100;DHT22;1560;52.746;13.474;2023-05-17T22:09:59;9.10;99.90
3100;DHT22;1560;52.746;13.474;2023-05-17T22:12:29;9.10;99.90
3100;DHT22;1560;52.746;13.474;2023-05-17T22:15:02;9.10;99.90
3100;DHT22;1560;52.746;13.474;2023-05-17T22:17:31;9.10;99.90
3100;DHT22;1560;52.746;13.474;2023-05-17T22:20:06;9.10;99.90
3100;DHT22;1560;52.746;13.474;2023-05-17T22:22:37;9.00;99.90
3100;DHT22;1560;52.746;13.474;2023-05-17T22:25:08;9.00;99.90